createdAt,value
2023-02-17T00:00:19.212Z,8.70
2023-02-17T00:02:45.910Z,8.71
2023-02-17T00:05:13.076Z,8.71
2023-02-17T00:07:39.802Z,8.72
2023-02-17T00:10:07.471Z,8.74
2023-02-17T00:12:34.062Z,8.77
2023-02-17T00:15:00.552Z,8.78
2023-02-17T00:17:27.146Z,8.78
2023-02-17T00:19:55.696Z,8.79
2023-02-17T00:22:25.459Z,8.80
2023-02-17T00:24:52.243Z,8.79
2023-02-17T00:27:19.599Z,8.79
2023-02-17T00:29:46.279Z,8.77
2023-02-17T00:32:13.099Z,8.78
2023-02-17T00:34:39.681Z,8.80
2023-02-17T00:37:06.902Z,8.81
2023-02-17T00:39:33.409Z,8.82
2023-02-17T00:41:59.960Z,8.83
2023-02-17T00:44:31.098Z,8.86
2023-02-17T00:46:58.191Z,8.86
2023-02-17T00:49:26.613Z,8.86
2023-02-17T00:51:53.660Z,8.88
2023-02-17T00:54:20.807Z,8.89
2023-02-17T00:56:47.407Z,8.87
2023-02-17T00:59:13.897Z,8.88
2023-02-17T01:01:40.434Z,8.89
2023-02-17T01:04:09.420Z,8.92
2023-02-17T01:06:38.120Z,8.95
2023-02-17T01:09:08.544Z,8.95
2023-02-17T01:11:37.810Z,8.93
2023-02-17T01:14:06.409Z,8.94
2023-02-17T01:16:42.418Z,8.95
2023-02-17T01:19:13.190Z,8.95
2023-02-17T01:21:39.735Z,8.95
2023-02-17T01:24:12.370Z,8.95
2023-02-17T01:26:39.821Z,8.95
2023-02-17T01:29:07.411Z,8.96
2023-02-17T01:31:34.843Z,8.97
2023-02-17T01:34:03.862Z,8.98
2023-02-17T01:36:31.197Z,8.97
2023-02-17T01:38:58.797Z,8.97
2023-02-17T01:41:27.228Z,8.99
2023-02-17T01:44:21.912Z,8.98
2023-02-17T01:46:51.663Z,8.98
2023-02-17T01:49:26.944Z,8.98
2023-02-17T01:52:01.123Z,9.00
2023-02-17T01:54:34.192Z,9.03
2023-02-17T01:57:02.188Z,9.04
2023-02-17T01:59:31.329Z,9.04
2023-02-17T02:02:00.604Z,9.04
2023-02-17T02:04:31.925Z,9.04
2023-02-17T02:06:59.095Z,9.06
2023-02-17T02:09:36.961Z,9.06
2023-02-17T02:12:03.595Z,9.06
2023-02-17T02:14:32.027Z,9.06
2023-02-17T02:17:21.768Z,9.07
2023-02-17T02:20:25.991Z,9.07
2023-02-17T02:23:30.610Z,9.06
2023-02-17T02:26:09.062Z,9.05
2023-02-17T02:29:03.665Z,9.05
2023-02-17T02:31:46.092Z,9.07
2023-02-17T02:34:20.612Z,9.06
2023-02-17T02:37:00.601Z,9.06
2023-02-17T02:39:34.751Z,9.08
2023-02-17T02:42:07.820Z,9.06
2023-02-17T02:44:35.045Z,9.06
2023-02-17T02:47:05.345Z,9.08
2023-02-17T02:49:37.073Z,9.06
2023-02-17T02:52:26.716Z,9.05
2023-02-17T02:55:20.790Z,9.03
2023-02-17T02:57:57.170Z,9.02
2023-02-17T03:00:44.321Z,9.00
2023-02-17T03:03:31.636Z,8.99
2023-02-17T03:06:30.287Z,9.00
2023-02-17T03:09:05.398Z,9.03
2023-02-17T03:11:35.036Z,9.02
2023-02-17T03:14:06.781Z,9.03
2023-02-17T03:16:35.315Z,9.03
2023-02-17T03:19:02.152Z,9.02
2023-02-17T03:21:35.659Z,9.01
2023-02-17T03:24:02.388Z,9.00
2023-02-17T03:26:28.875Z,8.99
2023-02-17T03:28:56.297Z,8.99
2023-02-17T03:31:23.669Z,8.98
2023-02-17T03:33:50.639Z,8.99
2023-02-17T03:36:17.491Z,8.98
2023-02-17T03:38:44.738Z,8.97
2023-02-17T03:41:11.261Z,8.97
2023-02-17T03:43:37.829Z,8.98
2023-02-17T03:46:10.089Z,8.99
2023-02-17T03:48:36.683Z,9.01
2023-02-17T03:51:21.263Z,9.04
2023-02-17T03:53:49.332Z,9.04
2023-02-17T03:56:17.646Z,9.06
2023-02-17T03:58:45.892Z,9.08
2023-02-17T04:01:13.498Z,9.09
2023-02-17T04:03:40.966Z,9.09
2023-02-17T04:06:08.707Z,9.09
2023-02-17T04:08:35.830Z,9.11
2023-02-17T04:11:04.644Z,9.11
2023-02-17T04:13:31.350Z,9.14
2023-02-17T04:16:01.286Z,9.16
2023-02-17T04:18:28.628Z,9.16
2023-02-17T04:20:55.134Z,9.16
2023-02-17T04:23:21.983Z,9.14
2023-02-17T04:25:49.359Z,9.12
2023-02-17T04:28:16.959Z,9.12
2023-02-17T04:30:49.498Z,9.15
2023-02-17T04:33:17.041Z,9.16
2023-02-17T04:35:43.618Z,9.18
2023-02-17T04:38:11.273Z,9.18
2023-02-17T04:40:38.565Z,9.17
2023-02-17T04:43:05.237Z,9.18
2023-02-17T04:45:32.586Z,9.18
2023-02-17T04:47:59.075Z,9.19
2023-02-17T04:50:25.606Z,9.18
2023-02-17T04:52:52.155Z,9.18
2023-02-17T04:55:19.042Z,9.17
2023-02-17T04:57:45.479Z,9.15
2023-02-17T05:00:13.425Z,9.16
2023-02-17T05:02:40.178Z,9.15
2023-02-17T05:05:07.504Z,9.15
2023-02-17T05:07:34.046Z,9.14
2023-02-17T05:10:00.584Z,9.13
2023-02-17T05:12:27.231Z,9.14
2023-02-17T05:14:53.721Z,9.14
2023-02-17T05:17:20.314Z,9.11
2023-02-17T05:19:46.801Z,9.11
2023-02-17T05:22:13.282Z,9.12
2023-02-17T05:24:39.753Z,9.13
2023-02-17T05:27:06.218Z,9.16
2023-02-17T05:29:32.853Z,9.17
2023-02-17T05:32:00.024Z,9.17
2023-02-17T05:34:26.576Z,9.20
2023-02-17T05:36:53.284Z,9.21
2023-02-17T05:39:19.770Z,9.23
2023-02-17T05:41:46.223Z,9.21
2023-02-17T05:44:12.807Z,9.21
2023-02-17T05:46:40.751Z,9.22
2023-02-17T05:49:07.493Z,9.26
2023-02-17T05:51:33.966Z,9.27
2023-02-17T05:54:00.625Z,9.28
2023-02-17T05:56:27.476Z,9.29
2023-02-17T05:58:54.160Z,9.33
2023-02-17T06:01:21.497Z,9.33
2023-02-17T06:03:48.131Z,9.36
2023-02-17T06:06:14.776Z,9.37
2023-02-17T06:08:41.217Z,9.37
2023-02-17T06:11:10.988Z,9.39
2023-02-17T06:13:37.529Z,9.41
2023-02-17T06:16:05.353Z,9.43
2023-02-17T06:18:32.091Z,9.43
2023-02-17T06:20:59.323Z,9.46
2023-02-17T06:23:27.028Z,9.48
2023-02-17T06:25:54.017Z,9.50
2023-02-17T06:28:20.496Z,9.52
2023-02-17T06:30:47.087Z,9.57
2023-02-17T06:33:14.773Z,9.58
2023-02-17T06:35:41.281Z,9.61
2023-02-17T06:38:07.804Z,9.63
2023-02-17T06:40:34.304Z,9.66
2023-02-17T06:43:01.359Z,9.69
2023-02-17T06:45:29.163Z,9.71
2023-02-17T06:47:55.720Z,9.71
2023-02-17T06:50:22.195Z,9.72
2023-02-17T06:52:48.768Z,9.73
2023-02-17T06:55:15.430Z,9.74
2023-02-17T06:57:42.101Z,9.75
2023-02-17T07:00:09.145Z,9.78
2023-02-17T07:02:38.683Z,9.78
2023-02-17T07:05:08.231Z,9.85
2023-02-17T07:07:34.888Z,10.17
2023-02-17T07:10:01.530Z,10.48
2023-02-17T07:12:29.337Z,10.72
2023-02-17T07:14:58.504Z,10.98
2023-02-17T07:17:24.945Z,11.08
2023-02-17T07:19:51.519Z,11.06
2023-02-17T07:22:18.037Z,11.02
2023-02-17T07:24:44.781Z,10.99
2023-02-17T07:27:11.332Z,10.93
2023-02-17T07:29:38.063Z,10.88
2023-02-17T07:32:04.978Z,10.82
2023-02-17T07:34:32.040Z,10.81
2023-02-17T07:36:58.701Z,10.79
2023-02-17T07:39:25.599Z,10.79
2023-02-17T07:41:52.213Z,10.78
2023-02-17T07:44:18.796Z,10.76
2023-02-17T07:46:45.487Z,10.75
2023-02-17T07:49:12.383Z,10.75
2023-02-17T07:51:38.907Z,10.76
2023-02-17T07:54:05.752Z,10.78
2023-02-17T07:56:33.772Z,10.79
2023-02-17T07:59:00.822Z,10.81
2023-02-17T08:01:27.432Z,10.84
2023-02-17T08:03:54.408Z,10.86
2023-02-17T08:06:23.394Z,10.88
2023-02-17T08:09:10.290Z,10.92
2023-02-17T08:11:55.925Z,10.97
2023-02-17T08:14:23.870Z,11.00
2023-02-17T08:16:50.620Z,11.02
2023-02-17T08:19:17.564Z,11.05
2023-02-17T08:21:44.179Z,11.07
2023-02-17T08:24:10.810Z,11.10
2023-02-17T08:26:37.395Z,11.15
2023-02-17T08:29:04.486Z,11.17
2023-02-17T08:31:33.393Z,11.21
2023-02-17T08:34:02.168Z,11.25
2023-02-17T08:36:29.590Z,11.27
2023-02-17T08:38:56.933Z,11.30
2023-02-17T08:41:30.764Z,11.34
2023-02-17T08:44:00.109Z,11.37
2023-02-17T08:46:28.334Z,11.42
2023-02-17T08:48:56.346Z,11.47
2023-02-17T08:51:28.060Z,11.52
2023-02-17T08:53:57.091Z,11.55
2023-02-17T08:56:24.995Z,11.59
2023-02-17T08:58:52.219Z,11.61
2023-02-17T09:01:19.321Z,11.66
2023-02-17T09:03:47.792Z,11.69
2023-02-17T09:06:15.777Z,11.74
2023-02-17T09:08:43.713Z,11.76
2023-02-17T09:11:10.400Z,11.79
2023-02-17T09:13:37.559Z,11.83
2023-02-17T09:16:05.055Z,11.85
2023-02-17T09:18:31.928Z,11.88
2023-02-17T09:21:00.584Z,11.89
2023-02-17T09:23:27.521Z,11.92
2023-02-17T09:26:06.528Z,12.14
2023-02-17T09:28:35.035Z,12.32
2023-02-17T09:31:22.427Z,12.44
2023-02-17T09:33:51.226Z,12.52
2023-02-17T09:36:21.233Z,12.58
2023-02-17T09:38:49.108Z,12.64
2023-02-17T09:41:24.544Z,12.60
2023-02-17T09:43:52.762Z,12.56
2023-02-17T09:46:37.468Z,12.51
2023-02-17T09:49:12.374Z,12.45
2023-02-17T09:52:04.585Z,12.42
2023-02-17T09:54:41.261Z,12.40
2023-02-17T09:57:12.245Z,12.40
2023-02-17T09:59:46.573Z,12.39
2023-02-17T10:02:28.119Z,12.40
2023-02-17T10:05:01.304Z,12.44
2023-02-17T10:07:36.176Z,12.44
2023-02-17T10:10:08.517Z,12.48
2023-02-17T10:12:41.288Z,12.52
2023-02-17T10:15:19.475Z,12.59
2023-02-17T10:17:48.684Z,12.59
2023-02-17T10:20:28.786Z,12.64
2023-02-17T10:23:01.763Z,12.63
2023-02-17T10:25:46.518Z,12.66
2023-02-17T10:28:23.238Z,12.63
2023-02-17T10:31:02.125Z,12.65
2023-02-17T10:33:38.094Z,12.68
2023-02-17T10:36:34.153Z,12.68
2023-02-17T10:39:13.404Z,12.70
2023-02-17T10:41:42.197Z,12.76
2023-02-17T10:44:16.074Z,12.74
2023-02-17T10:46:44.264Z,12.75
2023-02-17T10:49:30.205Z,12.77
2023-02-17T10:52:01.889Z,12.77
2023-02-17T10:54:37.231Z,12.76
2023-02-17T10:57:08.127Z,12.77
2023-02-17T10:59:43.752Z,12.76
2023-02-17T11:02:25.057Z,12.84
2023-02-17T11:04:55.027Z,12.85
2023-02-17T11:07:32.569Z,12.92
2023-02-17T11:10:03.427Z,12.92
2023-02-17T11:12:42.322Z,12.95
2023-02-17T11:15:18.996Z,12.93
2023-02-17T11:17:47.400Z,12.96
2023-02-17T11:20:13.911Z,12.98
2023-02-17T11:22:41.782Z,12.98
2023-02-17T11:25:23.107Z,12.96
2023-02-17T11:27:55.306Z,12.95
2023-02-17T11:30:22.823Z,12.90
2023-02-17T11:32:49.439Z,12.97
2023-02-17T11:35:26.803Z,12.94
2023-02-17T11:38:01.623Z,13.02
2023-02-17T11:40:31.276Z,13.08
2023-02-17T11:42:59.921Z,13.28
2023-02-17T11:45:35.443Z,13.39
2023-02-17T11:48:20.496Z,13.52
2023-02-17T11:50:58.441Z,13.46
2023-02-17T11:54:02.941Z,13.54
2023-02-17T11:56:34.734Z,13.55
2023-02-17T11:59:14.831Z,13.64
2023-02-17T12:02:10.055Z,13.73
2023-02-17T12:05:19.328Z,13.76
2023-02-17T12:08:02.848Z,13.78
2023-02-17T12:10:45.199Z,13.73
2023-02-17T12:13:34.740Z,13.78
2023-02-17T12:16:34.346Z,13.82
2023-02-17T12:19:13.024Z,13.84
2023-02-17T12:22:03.279Z,13.90
2023-02-17T12:24:42.955Z,14.03
2023-02-17T12:27:34.600Z,14.18
2023-02-17T12:30:19.619Z,14.15
2023-02-17T12:33:00.415Z,14.22
2023-02-17T12:35:55.609Z,14.31
2023-02-17T12:38:37.177Z,14.30
2023-02-17T12:41:25.314Z,14.26
2023-02-17T12:43:59.670Z,14.21
2023-02-17T12:46:32.712Z,14.18
2023-02-17T12:49:07.550Z,14.09
2023-02-17T12:51:40.919Z,13.99
2023-02-17T12:54:33.281Z,13.89
2023-02-17T12:57:17.333Z,13.87
2023-02-17T12:59:46.960Z,13.82
2023-02-17T13:02:31.421Z,13.73
2023-02-17T13:05:07.000Z,13.73
2023-02-17T13:07:51.080Z,13.68
2023-02-17T13:10:30.500Z,13.66
2023-02-17T13:13:04.833Z,13.63
2023-02-17T13:15:35.069Z,13.56
2023-02-17T13:18:24.488Z,13.54
2023-02-17T13:20:54.601Z,13.52
2023-02-17T13:24:26.261Z,13.50
2023-02-17T13:26:52.702Z,13.46
2023-02-17T13:29:25.139Z,13.44
2023-02-17T13:31:57.845Z,13.39
2023-02-17T13:34:39.594Z,13.41
2023-02-17T13:37:18.097Z,13.37
2023-02-17T13:39:45.818Z,13.31
2023-02-17T13:42:42.092Z,13.27
2023-02-17T13:45:25.030Z,13.23
2023-02-17T13:47:57.471Z,13.24
2023-02-17T13:50:28.096Z,13.22
2023-02-17T13:52:55.686Z,13.21
2023-02-17T13:55:25.875Z,13.16
2023-02-17T13:57:54.770Z,13.01
2023-02-17T14:00:21.666Z,12.90
2023-02-17T14:02:51.814Z,12.82
2023-02-17T14:05:41.676Z,12.68
2023-02-17T14:08:14.995Z,12.58
2023-02-17T14:10:41.619Z,12.54
2023-02-17T14:13:12.214Z,12.51
2023-02-17T14:15:53.368Z,12.50
2023-02-17T14:18:36.744Z,12.51
2023-02-17T14:21:10.836Z,12.46
2023-02-17T14:23:49.803Z,12.39
2023-02-17T14:26:31.481Z,12.34
2023-02-17T14:29:01.387Z,12.33
2023-02-17T14:31:28.509Z,12.31
2023-02-17T14:34:00.633Z,12.24
2023-02-17T14:36:37.262Z,12.15
2023-02-17T14:39:07.611Z,12.04
2023-02-17T14:41:34.960Z,11.99
2023-02-17T14:44:01.524Z,11.96
2023-02-17T14:46:28.374Z,11.95
2023-02-17T14:48:56.285Z,11.88
2023-02-17T14:51:25.434Z,11.82
2023-02-17T14:53:52.516Z,11.75
2023-02-17T14:56:27.125Z,11.68
2023-02-17T14:58:53.772Z,11.62
2023-02-17T15:01:22.221Z,11.58
2023-02-17T15:03:49.075Z,11.53
2023-02-17T15:06:18.492Z,11.48
2023-02-17T15:08:49.044Z,11.47
2023-02-17T15:11:30.240Z,11.44
2023-02-17T15:13:56.940Z,11.44
2023-02-17T15:16:23.571Z,11.42
2023-02-17T15:18:50.974Z,11.42
2023-02-17T15:21:36.503Z,11.42
2023-02-17T15:24:06.381Z,11.39
2023-02-17T15:26:32.866Z,11.39
2023-02-17T15:28:59.951Z,11.41
2023-02-17T15:31:32.236Z,11.42
2023-02-17T15:34:00.692Z,11.44
2023-02-17T15:36:28.520Z,11.47
2023-02-17T15:38:55.211Z,11.52
2023-02-17T15:41:25.707Z,11.57
2023-02-17T15:43:55.681Z,11.59
2023-02-17T15:46:28.862Z,11.58
2023-02-17T15:48:55.437Z,11.59
2023-02-17T15:51:23.363Z,11.58
2023-02-17T15:53:50.295Z,11.59
2023-02-17T15:56:29.891Z,11.64
2023-02-17T15:58:58.033Z,11.65
2023-02-17T16:01:32.723Z,11.66
2023-02-17T16:03:59.564Z,11.66
2023-02-17T16:06:27.278Z,11.67
2023-02-17T16:08:54.100Z,11.63
2023-02-17T16:11:22.542Z,11.60
2023-02-17T16:13:49.704Z,11.59
2023-02-17T16:16:25.251Z,11.61
2023-02-17T16:18:52.611Z,11.62
2023-02-17T16:21:19.246Z,11.61
2023-02-17T16:23:46.078Z,11.65
2023-02-17T16:26:26.144Z,11.70
2023-02-17T16:28:52.812Z,11.74
2023-02-17T16:31:19.661Z,11.78
2023-02-17T16:33:46.525Z,11.82
2023-02-17T16:36:18.677Z,11.85
2023-02-17T16:38:48.618Z,11.87
2023-02-17T16:41:18.542Z,11.86
2023-02-17T16:43:46.273Z,11.83
2023-02-17T16:46:27.288Z,11.77
2023-02-17T16:48:53.928Z,11.76
2023-02-17T16:51:21.206Z,11.78
2023-02-17T16:53:47.693Z,11.77
2023-02-17T16:56:21.124Z,11.76
2023-02-17T16:58:47.641Z,11.76
2023-02-17T17:01:14.159Z,11.77
2023-02-17T17:03:42.310Z,11.75
2023-02-17T17:06:29.993Z,11.70
2023-02-17T17:08:57.064Z,11.68
2023-02-17T17:11:26.257Z,11.70
2023-02-17T17:13:52.945Z,11.73
2023-02-17T17:16:24.703Z,11.76
2023-02-17T17:18:51.906Z,11.79
2023-02-17T17:21:20.101Z,11.82
2023-02-17T17:23:47.034Z,11.83
2023-02-17T17:26:26.175Z,11.83
2023-02-17T17:28:53.994Z,11.84
2023-02-17T17:31:21.387Z,11.80
2023-02-17T17:33:52.295Z,11.78
2023-02-17T17:36:31.240Z,11.77
2023-02-17T17:38:59.107Z,11.75
2023-02-17T17:41:28.218Z,11.74
2023-02-17T17:43:55.667Z,11.75
2023-02-17T17:46:30.986Z,11.76
2023-02-17T17:48:59.531Z,11.75
2023-02-17T17:51:28.195Z,11.77
2023-02-17T17:53:55.825Z,11.76
2023-02-17T17:56:28.341Z,11.74
2023-02-17T17:58:56.451Z,11.55
2023-02-17T18:01:23.326Z,11.38
2023-02-17T18:03:50.757Z,11.27
2023-02-17T18:06:27.061Z,11.14
2023-02-17T18:08:56.805Z,10.95
2023-02-17T18:11:24.561Z,10.78
2023-02-17T18:13:54.921Z,10.71
2023-02-17T18:16:24.595Z,10.55
2023-02-17T18:18:51.762Z,10.39
2023-02-17T18:21:18.337Z,10.26
2023-02-17T18:23:45.293Z,10.14
2023-02-17T18:26:12.472Z,10.07
2023-02-17T18:28:39.211Z,9.99
2023-02-17T18:31:18.673Z,9.93
2023-02-17T18:33:45.358Z,9.85
2023-02-17T18:36:17.554Z,9.76
2023-02-17T18:38:44.718Z,9.64
2023-02-17T18:41:26.428Z,9.53
2023-02-17T18:43:55.615Z,9.40
2023-02-17T18:46:22.108Z,9.30
2023-02-17T18:48:49.242Z,9.22
2023-02-17T18:51:19.322Z,9.14
2023-02-17T18:53:45.797Z,9.06
2023-02-17T18:56:15.280Z,9.01
2023-02-17T18:58:41.944Z,8.91
2023-02-17T19:01:18.783Z,8.82
2023-02-17T19:03:45.513Z,8.75
2023-02-17T19:06:15.906Z,8.70
2023-02-17T19:08:43.527Z,8.68
2023-02-17T19:11:10.242Z,8.65
2023-02-17T19:13:38.958Z,8.62
2023-02-17T19:16:14.162Z,8.57
2023-02-17T19:18:43.102Z,8.57
2023-02-17T19:21:11.419Z,8.59
2023-02-17T19:23:38.366Z,8.54
2023-02-17T19:26:07.569Z,8.56
2023-02-17T19:28:35.954Z,8.53
2023-02-17T19:31:05.494Z,8.49
2023-02-17T19:33:32.353Z,8.48
2023-02-17T19:35:58.880Z,8.46
2023-02-17T19:38:25.616Z,8.43
2023-02-17T19:40:52.074Z,8.38
2023-02-17T19:43:18.630Z,8.38
2023-02-17T19:45:46.602Z,8.37
2023-02-17T19:48:13.154Z,8.33
2023-02-17T19:50:40.319Z,8.34
2023-02-17T19:53:07.571Z,8.34
2023-02-17T19:55:34.087Z,8.32
2023-02-17T19:58:00.650Z,8.28
2023-02-17T20:00:27.254Z,8.26
2023-02-17T20:02:54.896Z,8.23
2023-02-17T20:05:21.425Z,8.20
2023-02-17T20:07:48.368Z,8.16
2023-02-17T20:10:14.977Z,8.13
2023-02-17T20:12:41.635Z,8.11
2023-02-17T20:15:09.102Z,8.06
2023-02-17T20:17:35.628Z,8.04
2023-02-17T20:20:02.149Z,8.01
2023-02-17T20:22:28.726Z,8.00
2023-02-17T20:24:55.283Z,7.95
2023-02-17T20:27:22.637Z,7.91
2023-02-17T20:29:49.204Z,7.94
2023-02-17T20:32:15.765Z,7.93
2023-02-17T20:34:42.322Z,7.95
2023-02-17T20:37:09.841Z,7.91
2023-02-17T20:39:38.525Z,7.88
2023-02-17T20:42:05.451Z,7.87
2023-02-17T20:44:32.062Z,7.83
2023-02-17T20:46:59.069Z,7.88
2023-02-17T20:49:25.829Z,7.87
2023-02-17T20:51:52.682Z,7.88
2023-02-17T20:54:19.613Z,7.88
2023-02-17T20:56:47.399Z,7.86
2023-02-17T20:59:14.856Z,7.87
2023-02-17T21:01:41.935Z,7.88
2023-02-17T21:04:09.738Z,7.86
2023-02-17T21:06:43.346Z,7.82
2023-02-17T21:09:14.791Z,7.79
2023-02-17T21:11:41.458Z,7.77
2023-02-17T21:14:08.395Z,7.78
2023-02-17T21:16:35.835Z,7.78
2023-02-17T21:19:04.113Z,7.80
2023-02-17T21:21:31.961Z,7.81
2023-02-17T21:24:00.722Z,7.81
2023-02-17T21:26:27.564Z,7.83
2023-02-17T21:28:56.056Z,7.82
2023-02-17T21:31:22.697Z,7.83
2023-02-17T21:33:49.148Z,7.84
2023-02-17T21:36:18.873Z,7.82
2023-02-17T21:38:45.967Z,7.81
2023-02-17T21:41:17.016Z,7.78
2023-02-17T21:44:03.130Z,7.72
2023-02-17T21:46:31.365Z,7.74
2023-02-17T21:48:59.797Z,7.76
2023-02-17T21:51:27.104Z,7.73
2023-02-17T21:53:54.025Z,7.72
2023-02-17T21:56:22.854Z,7.71
2023-02-17T21:58:52.470Z,7.68
2023-02-17T22:01:20.747Z,7.67
2023-02-17T22:03:47.448Z,7.67
2023-02-17T22:06:14.802Z,7.67
2023-02-17T22:08:41.421Z,7.66
2023-02-17T22:11:23.550Z,7.66
2023-02-17T22:13:53.860Z,7.63
2023-02-17T22:16:20.486Z,7.60
2023-02-17T22:18:46.985Z,7.57
2023-02-17T22:21:14.111Z,7.55
2023-02-17T22:23:41.908Z,7.53
2023-02-17T22:26:15.852Z,7.53
2023-02-17T22:28:43.273Z,7.53
2023-02-17T22:31:13.869Z,7.53
2023-02-17T22:33:40.785Z,7.49
2023-02-17T22:36:10.611Z,7.49
2023-02-17T22:38:38.493Z,7.48
2023-02-17T22:41:10.822Z,7.48
2023-02-17T22:43:40.335Z,7.47
2023-02-17T22:46:08.277Z,7.46
2023-02-17T22:48:37.285Z,7.45
2023-02-17T22:51:06.748Z,7.42
2023-02-17T22:53:36.397Z,7.42
2023-02-17T22:56:04.596Z,7.40
2023-02-17T22:58:31.278Z,7.41
2023-02-17T23:01:07.157Z,7.39
2023-02-17T23:03:34.870Z,7.41
2023-02-17T23:06:08.587Z,7.44
2023-02-17T23:08:35.554Z,7.44
2023-02-17T23:11:06.581Z,7.42
2023-02-17T23:13:34.066Z,7.41
2023-02-17T23:16:02.244Z,7.41
2023-02-17T23:18:30.994Z,7.40
2023-02-17T23:20:58.053Z,7.36
2023-02-17T23:23:26.931Z,7.34
2023-02-17T23:25:55.552Z,7.34
2023-02-17T23:28:24.386Z,7.35
2023-02-17T23:30:51.405Z,7.35
2023-02-17T23:33:20.148Z,7.33
2023-02-17T23:35:47.723Z,7.33
2023-02-17T23:38:17.116Z,7.33
2023-02-17T23:40:49.233Z,7.32
2023-02-17T23:43:15.828Z,7.31
2023-02-17T23:45:42.580Z,7.28
2023-02-17T23:48:09.131Z,7.29
2023-02-17T23:50:35.648Z,7.27
2023-02-17T23:53:02.190Z,7.27
2023-02-17T23:55:28.710Z,7.27
2023-02-17T23:57:55.185Z,7.29
